Buck Creek, IN (47924)

4:41 PM EST on February 11, 2016 (GMT -0500)
Pettit, IN 47905 | | Change Station
CLOSE
Current Station
Personal Weather Station
Location: Lafayette, IN
Elevation: 682 ft
Nearby Weather Stations

Elev 682 ft 40.42 °N, 86.72 °W | Updated 10 minutes ago

Clear
Clear
26.4 °F
Feels Like 23 °F
N
3.1
Wind Variable Wind from NW

Today
High -- | Low -- °F
--% Chance of Precip.
Yesterday
High -- | Low -- °F
Precip. -- in
Pressure 30.33 in
Visibility 10.0 miles
Clouds Clear
Windchill 23 °F
Dew Point 9 °F
Humidity 47%
Rainfall 0.00 in
Snow Depth Not available.
7:46 AM 6:16 PM
Waxing Crescent, 14% visible
METAR KLAF 112054Z 30004KT 10SM CLR M05/M17 A3030 RMK AO2 SLP269 T10501167 55004
Pressure 30.33 in
Visibility 10.0 miles
Clouds Clear
Windchill 23 °F
Dew Point 9 °F
Humidity 47%
Rainfall 0.00 in
Snow Depth Not available.
7:46 AM 6:16 PM
Waxing Crescent, 14% visible
METAR KLAF 112054Z 30004KT 10SM CLR M05/M17 A3030 RMK AO2 SLP269 T10501167 55004

10-Day Weather Forecast

Almanac

Astronomy

Feb. 11, 2016 Rise Set
Actual Time
Civil Twilight
Nautical Twilight
Astronomical Twilight
Moon
Length of Visible Light
Length of Day
Tomorrow will be .
, % of the Moon is Illuminated

Today's Extremes

State Highs State Lows

Community

WunderPhotos

Upload Photos

1,892,165 photos uploaded!

WunderBlog® & News

Nearby

Air Quality

  Air Quality AQ Index Pollutant
Not available.

Snow Depth

Station Depth Elevation

Earthquake Activity

City Distance Mag. Time & Date
Minimum magnitude displayed is 2.5.

Coastal Water Temperatures

Place Temperature

Stations

Nearby Weather Stations

Station Location Temp. Windchill Dew Point Humidity Wind Precip. Elev Updated Type
                   

Watches & Warnings

There are currently no watches in effect.